Time;durP1;ratioP1;P1;durP2;ratioP2;P2;SDS_P1;SDS_P2;PMS_P1;PMS_P2;Temp;Humidity;BMP_temperature;BMP_pressure;BME280_temperature;BME280_humidity;BME280_pressure;Samples;Min_cycle;Max_cycle;Signal;HPM_P1;HPM_P2
2020/12/02 00:01:10;;;;;;;38.67;13.48;;;;;;;-3.90;85.81;99896.98;1777381;80;21285;-81
2020/12/02 00:03:41;;;;;;;46.30;14.43;;;;;;;-3.90;85.81;99896.98;1779430;80;21310;-82
2020/12/02 00:06:10;;;;;;;50.45;13.85;;;;;;;-3.89;85.76;99903.41;1777970;80;21561;-81
2020/12/02 00:08:47;;;;;;;51.48;15.45;;;;;;;-3.88;85.34;99903.00;1752384;82;21162;-80
2020/12/02 00:11:15;;;;;;;44.50;14.73;;;;;;;-3.88;85.34;99903.00;1779012;80;21825;-81
2020/12/02 00:13:48;;;;;;;43.98;14.30;;;;;;;-3.90;85.51;99906.77;1778002;80;21290;-81
2020/12/02 00:16:21;;;;;;;43.92;14.05;;;;;;;-3.92;85.57;99908.38;1751257;82;21282;-81
2020/12/02 00:18:51;;;;;;;43.48;15.23;;;;;;;-3.92;85.60;99906.20;1776451;80;21286;-82
2020/12/02 00:21:22;;;;;;;46.48;14.23;;;;;;;-3.94;85.71;99905.27;1779350;80;21329;-80
2020/12/02 00:23:53;;;;;;;41.95;14.38;;;;;;;-3.97;85.46;99906.41;1750811;82;21293;-80
2020/12/02 00:26:22;;;;;;;49.98;15.50;;;;;;;-3.97;85.46;99906.41;1775858;79;21167;-81
2020/12/02 00:28:52;;;;;;;46.05;13.90;;;;;;;-4.00;85.89;99912.20;1748608;82;21705;-91
2020/12/02 00:31:21;;;;;;;47.78;15.55;;;;;;;-3.99;85.55;99922.84;1749774;81;21217;-81
2020/12/02 00:33:48;;;;;;;42.93;13.93;;;;;;;-3.94;85.97;99923.05;1748742;80;21256;-81
2020/12/02 00:36:16;;;;;;;44.20;12.68;;;;;;;-3.96;85.68;99903.92;1748437;81;21439;-81
2020/12/02 00:38:44;;;;;;;44.50;13.90;;;;;;;-3.96;85.68;99903.92;1745359;82;21276;-81
2020/12/02 00:41:13;;;;;;;44.15;14.93;;;;;;;-3.96;85.27;99909.00;1747973;82;21288;-81
2020/12/02 00:43:40;;;;;;;40.08;12.88;;;;;;;-4.01;85.53;99908.80;1752000;82;21437;-83
2020/12/02 00:46:09;;;;;;;39.78;12.33;;;;;;;-4.03;85.44;99917.16;1749688;81;21236;-81
2020/12/02 00:48:37;;;;;;;39.73;13.32;;;;;;;-4.06;85.56;99912.81;1746464;82;21276;-82
2020/12/02 00:51:06;;;;;;;39.48;12.63;;;;;;;-4.04;85.33;99906.52;1744603;81;21324;-81
2020/12/02 00:53:35;;;;;;;45.00;13.30;;;;;;;-4.02;85.27;99913.42;1746503;82;21275;-82
2020/12/02 00:56:05;;;;;;;46.42;14.58;;;;;;;-3.99;85.26;99910.15;1717437;81;21319;-82
2020/12/02 00:58:46;;;;;;;36.93;13.65;;;;;;;-4.00;85.44;99914.73;1744698;82;21292;-80
2020/12/02 01:01:18;;;;;;;37.28;12.78;;;;;;;-3.97;85.18;99913.62;1747199;81;21275;-81
2020/12/02 01:03:47;;;;;;;41.57;13.93;;;;;;;-3.97;85.13;99915.30;1747338;82;21276;-82
2020/12/02 01:06:16;;;;;;;46.63;14.40;;;;;;;-4.00;85.46;99909.66;1746914;81;21296;-82
2020/12/02 01:08:48;;;;;;;53.00;16.87;;;;;;;-3.95;85.31;99908.22;1747079;82;21177;-81
2020/12/02 01:11:26;;;;;;;36.23;13.60;;;;;;;-4.02;85.33;99903.27;1746513;81;21311;-81
2020/12/02 01:14:02;;;;;;;70.20;22.60;;;;;;;-4.04;85.25;99905.24;1739766;82;21494;-81
2020/12/02 01:16:41;;;;;;;96.10;27.82;;;;;;;-4.07;85.19;99903.84;1805456;78;22710;-80
2020/12/02 01:19:19;;;;;;;40.52;13.85;;;;;;;-4.25;85.60;99888.22;1811923;79;21284;-80
2020/12/02 01:22:01;;;;;;;48.65;15.95;;;;;;;-4.21;85.19;99905.75;1812240;79;21292;-82
2020/12/02 01:24:33;;;;;;;37.60;12.60;;;;;;;-4.33;85.84;99890.80;1810048;79;21304;-80
2020/12/02 01:27:08;;;;;;;51.10;14.55;;;;;;;-4.33;85.84;99890.80;1808321;79;21142;-80
2020/12/02 01:29:37;;;;;;;36.15;11.97;;;;;;;-4.26;86.08;99906.81;1811161;79;21302;-82
2020/12/02 01:32:06;;;;;;;43.17;14.13;;;;;;;-4.22;86.17;99901.45;1780185;79;21244;-81
2020/12/02 01:34:34;;;;;;;44.88;13.53;;;;;;;-4.21;85.78;99900.26;1809800;79;21323;-81
2020/12/02 01:37:27;;;;;;;50.98;14.90;;;;;;;-4.28;85.82;99895.68;1812023;79;21260;-81
2020/12/02 01:40:12;;;;;;;43.83;14.53;;;;;;;-4.27;86.10;99894.89;1809030;79;21538;-80
2020/12/02 01:42:44;;;;;;;47.90;14.73;;;;;;;-4.27;86.10;99894.89;1810542;79;21465;-81
2020/12/02 01:45:17;;;;;;;41.65;13.62;;;;;;;-4.29;85.71;99888.88;1811357;79;21295;-80
2020/12/02 01:48:26;;;;;;;47.83;15.57;;;;;;;-4.29;85.71;99888.88;1809888;79;21119;-82
2020/12/02 01:51:11;;;;;;;47.50;14.55;;;;;;;-4.21;85.63;99900.26;1811474;79;21299;-81
2020/12/02 01:54:05;;;;;;;47.78;15.88;;;;;;;-4.24;85.64;99890.35;1809712;79;21304;-81
2020/12/02 01:56:54;;;;;;;45.33;13.43;;;;;;;-4.32;85.18;99898.88;1810568;79;21276;-81
2020/12/02 01:59:36;;;;;;;43.40;13.35;;;;;;;-4.36;85.51;99898.26;1809262;79;21281;-81
2020/12/02 02:02:27;;;;;;;42.33;14.93;;;;;;;-4.36;85.51;99898.26;1775311;81;21174;-81
2020/12/02 02:05:07;;;;;;;46.50;15.72;;;;;;;-4.36;85.24;99902.07;1773467;81;21276;-81
2020/12/02 02:07:37;;;;;;;47.33;15.70;;;;;;;-4.35;85.38;99894.94;1772417;81;21266;-81
2020/12/02 02:10:25;;;;;;;51.28;15.85;;;;;;;-4.32;85.38;99899.28;1811761;79;21273;-81
2020/12/02 02:13:21;;;;;;;38.38;13.25;;;;;;;-4.27;85.65;99904.19;1809581;79;21162;-81
2020/12/02 02:16:03;;;;;;;41.35;12.58;;;;;;;-4.27;85.65;99904.19;1811810;79;21715;-81
2020/12/02 02:18:32;;;;;;;41.68;11.90;;;;;;;-4.27;85.30;99895.30;1813452;79;21122;-81
2020/12/02 02:21:13;;;;;;;52.58;16.20;;;;;;;-4.28;85.29;99893.14;1818230;79;21206;-82
2020/12/02 02:23:40;;;;;;;46.60;14.38;;;;;;;-4.31;85.24;99887.94;1814022;79;21271;-81
2020/12/02 02:26:32;;;;;;;39.18;13.60;;;;;;;-4.28;85.17;99891.01;1813711;79;21268;-80
2020/12/02 02:29:25;;;;;;;39.40;12.23;;;;;;;-4.24;85.21;99891.25;1816335;79;21718;-81
2020/12/02 02:32:15;;;;;;;32.15;11.55;;;;;;;-4.22;84.88;99893.45;1816078;78;21269;-82
2020/12/02 02:34:53;;;;;;;46.73;14.68;;;;;;;-4.22;84.88;99893.45;1815347;79;21309;-81
2020/12/02 02:37:30;;;;;;;43.95;15.05;;;;;;;-4.15;84.86;99891.20;1905891;75;23095;-80
2020/12/02 02:40:03;;;;;;;52.50;17.23;;;;;;;-4.21;85.22;99881.22;1868165;77;21264;-81
2020/12/02 02:42:41;;;;;;;43.00;12.53;;;;;;;-4.21;85.22;99881.22;1865232;77;21279;-81
2020/12/02 02:45:27;;;;;;;41.53;13.45;;;;;;;-4.09;84.87;99895.29;1808041;78;22901;-80
2020/12/02 02:47:58;;;;;;;37.50;12.15;;;;;;;-4.23;84.85;99878.14;1814462;78;21239;-81
2020/12/02 02:50:26;;;;;;;41.42;15.58;;;;;;;-4.17;84.69;99888.58;1814393;78;21196;-81
2020/12/02 02:52:54;;;;;;;35.92;12.18;;;;;;;-4.20;84.74;99884.24;1813751;78;21153;-81
2020/12/02 02:55:25;;;;;;;41.08;13.95;;;;;;;-4.23;84.43;99888.30;1805802;78;21251;-82
2020/12/02 02:57:54;;;;;;;39.23;13.13;;;;;;;-4.23;84.54;99892.11;1814696;78;21267;-82
2020/12/02 03:00:29;;;;;;;29.10;11.90;;;;;;;-4.21;84.69;99892.64;1811066;78;21270;-82
2020/12/02 03:02:57;;;;;;;52.65;11.90;;;;;;;-4.21;84.69;99892.64;1813785;78;21294;-81
2020/12/02 03:05:26;;;;;;;35.80;11.50;;;;;;;-4.22;84.40;99894.73;1816193;78;21251;-80
2020/12/02 03:08:04;;;;;;;43.90;11.65;;;;;;;-4.25;84.46;99892.03;1815219;78;21278;-82
2020/12/02 03:10:36;;;;;;;38.98;11.43;;;;;;;-4.29;84.47;99891.83;1810267;78;21287;-82
2020/12/02 03:13:46;;;;;;;38.00;12.33;;;;;;;-4.29;84.47;99891.83;1817297;78;21259;-81
2020/12/02 03:16:49;;;;;;;39.08;10.72;;;;;;;-4.32;84.51;99896.34;1808251;78;21664;-80
2020/12/02 03:19:27;;;;;;;36.23;11.25;;;;;;;-4.29;84.40;99897.77;1809171;78;21279;-81
2020/12/02 03:22:09;;;;;;;33.70;10.90;;;;;;;-4.33;84.71;99896.29;1898370;75;23351;-81
2020/12/02 03:24:39;;;;;;;36.03;12.05;;;;;;;-4.33;84.71;99896.29;1799269;79;21958;-81
2020/12/02 03:27:06;;;;;;;39.58;13.58;;;;;;;-4.35;84.50;99906.77;1799074;79;21293;-81
2020/12/02 03:29:34;;;;;;;37.90;12.37;;;;;;;-4.40;84.34;99907.42;1784120;78;21285;-81
2020/12/02 03:32:01;;;;;;;37.10;14.53;;;;;;;-4.47;84.36;99895.63;1803929;79;21286;-81
2020/12/02 03:34:28;;;;;;;42.85;12.18;;;;;;;-4.44;84.31;99901.70;1803264;79;21279;-82
2020/12/02 03:36:56;;;;;;;40.67;12.43;;;;;;;-4.45;84.49;99902.92;1802469;79;21315;-81
2020/12/02 03:39:23;;;;;;;38.85;11.97;;;;;;;-4.47;84.76;99898.17;1798592;79;22380;-81
2020/12/02 03:41:51;;;;;;;35.38;12.05;;;;;;;-4.43;84.60;99903.86;1803993;79;21717;-82
2020/12/02 03:44:18;;;;;;;33.90;12.70;;;;;;;-4.42;84.73;99896.70;1805706;79;21322;-81
2020/12/02 03:46:45;;;;;;;35.45;11.88;;;;;;;-4.43;84.71;99903.45;1804395;79;21130;-81
2020/12/02 03:49:13;;;;;;;28.45;10.58;;;;;;;-4.41;84.51;99903.53;1795583;80;21307;-82
2020/12/02 03:51:41;;;;;;;40.83;12.13;;;;;;;-4.37;84.49;99904.56;1821841;78;21343;-82
2020/12/02 03:54:08;;;;;;;33.30;11.35;;;;;;;-4.36;84.47;99903.34;1797234;80;21762;-81
2020/12/02 03:56:35;;;;;;;37.78;12.20;;;;;;;-4.38;84.54;99906.61;1798644;79;21783;-82
2020/12/02 03:59:03;;;;;;;43.78;12.10;;;;;;;-4.38;84.51;99896.05;1797353;80;21286;-81
2020/12/02 04:01:31;;;;;;;41.37;12.05;;;;;;;-4.40;84.78;99895.11;1829840;78;21283;-79
2020/12/02 04:03:58;;;;;;;35.17;11.63;;;;;;;-4.40;84.78;99895.11;1828497;78;21145;-81
2020/12/02 04:06:25;;;;;;;37.67;12.98;;;;;;;-4.34;84.53;99895.80;1830186;78;21533;-81
2020/12/02 04:08:53;;;;;;;39.00;11.88;;;;;;;-4.26;84.35;99900.84;1828084;78;21243;-81
2020/12/02 04:11:20;;;;;;;45.55;13.20;;;;;;;-4.24;84.15;99909.02;1798514;80;21267;-81
2020/12/02 04:13:48;;;;;;;36.23;12.20;;;;;;;-4.21;84.29;99902.80;1826123;78;21310;-81
2020/12/02 04:16:16;;;;;;;51.10;15.48;;;;;;;-4.13;83.80;99900.63;1830830;78;21251;-80
2020/12/02 04:18:43;;;;;;;54.65;15.15;;;;;;;-4.13;83.80;99900.63;1778369;79;21346;-82
2020/12/02 04:21:10;;;;;;;41.83;12.75;;;;;;;-4.14;83.81;99900.13;1807581;79;21270;-84
2020/12/02 04:23:38;;;;;;;42.90;13.85;;;;;;;-4.17;83.55;99889.84;1808503;78;21284;-83
2020/12/02 04:26:05;;;;;;;43.92;13.55;;;;;;;-4.15;83.61;99890.80;1808929;78;21282;-84
2020/12/02 04:28:32;;;;;;;41.53;13.38;;;;;;;-4.12;83.69;99895.13;1798231;80;21271;-83
2020/12/02 04:31:00;;;;;;;38.08;14.13;;;;;;;-4.04;83.77;99909.05;1805936;79;21284;-84
2020/12/02 04:33:27;;;;;;;46.50;16.10;;;;;;;-4.09;83.67;99894.02;1794789;78;21296;-83
2020/12/02 04:35:56;;;;;;;35.75;13.88;;;;;;;-4.01;83.56;99910.07;1797996;80;21576;-84
2020/12/02 04:38:23;;;;;;;41.77;13.10;;;;;;;-4.03;83.14;99907.00;1797788;79;21545;-83
2020/12/02 04:40:50;;;;;;;35.55;12.10;;;;;;;-4.03;83.06;99909.13;1791918;80;21168;-83
2020/12/02 04:43:35;;;;;;;47.83;13.43;;;;;;;-4.03;83.14;99909.54;1796355;79;21150;-84
2020/12/02 04:46:04;;;;;;;;;;;;;;;-4.01;83.24;99913.88;1800335;80;21111;-84
2020/12/02 04:48:32;;;;;;;37.55;11.70;;;;;;;-4.09;83.11;99916.47;1799764;78;20111;-83
2020/12/02 04:51:13;;;;;;;36.60;12.18;;;;;;;-4.11;83.24;99914.26;1830570;78;21262;-83
2020/12/02 04:53:45;;;;;;;44.38;12.30;;;;;;;-4.13;83.20;99912.05;1799604;80;21275;-83
2020/12/02 04:56:13;;;;;;;39.90;12.43;;;;;;;-4.05;83.33;99914.95;1761263;80;21270;-83
2020/12/02 04:58:42;;;;;;;42.03;13.38;;;;;;;-4.07;83.27;99916.55;1813785;79;21269;-84
2020/12/02 05:01:28;;;;;;;48.08;14.05;;;;;;;-4.04;83.03;99915.03;1813960;79;21256;-83
2020/12/02 05:04:03;;;;;;;38.67;13.88;;;;;;;-4.07;83.05;99908.92;1782188;80;21292;-83
2020/12/02 05:06:42;;;;;;;34.88;12.95;;;;;;;-4.03;83.03;99925.64;1787568;79;21708;-83
2020/12/02 05:09:25;;;;;;;42.90;13.10;;;;;;;-4.01;82.83;99919.37;1823355;78;21283;-83
2020/12/02 05:12:17;;;;;;;44.40;14.13;;;;;;;-4.06;82.69;99910.66;1797524;80;21270;-83
2020/12/02 05:14:47;;;;;;;42.78;12.45;;;;;;;-4.06;82.69;99910.66;1797276;80;21276;-83
2020/12/02 05:17:28;;;;;;;40.63;13.90;;;;;;;-4.09;82.77;99916.87;1798048;80;21300;-83
2020/12/02 05:20:16;;;;;;;56.37;16.50;;;;;;;-4.17;82.93;99914.38;1788209;80;22132;-81
2020/12/02 05:22:49;;;;;;;47.53;15.25;;;;;;;-4.17;82.87;99916.92;1756765;79;21295;-82
2020/12/02 05:25:31;;;;;;;44.25;14.70;;;;;;;-4.16;82.76;99919.92;1797328;80;21279;-81
2020/12/02 05:28:22;;;;;;;42.58;15.10;;;;;;;-4.11;83.02;99919.34;1789900;78;21533;-81
2020/12/02 05:31:22;;;;;;;46.85;14.55;;;;;;;-4.10;82.97;99911.31;1801128;78;22953;-82
2020/12/02 05:33:52;;;;;;;44.38;14.03;;;;;;;-4.16;82.89;99912.30;1747387;81;21328;-81
2020/12/02 05:36:27;;;;;;;41.18;13.18;;;;;;;-4.14;83.00;99911.56;1811858;79;21260;-82
2020/12/02 05:39:03;;;;;;;45.45;14.05;;;;;;;-4.12;83.01;99915.45;1810188;79;21252;-81
2020/12/02 05:41:34;;;;;;;44.75;14.13;;;;;;;-4.10;82.91;99920.20;1778145;79;21283;-81
2020/12/02 05:44:07;;;;;;;40.63;13.65;;;;;;;-4.12;82.98;99910.37;1812272;79;21283;-81
2020/12/02 05:46:47;;;;;;;43.50;14.47;;;;;;;-4.14;83.09;99916.64;1810981;79;21372;-81
2020/12/02 05:49:50;;;;;;;51.00;15.32;;;;;;;-4.12;82.84;99915.45;1812836;79;21269;-82
2020/12/02 05:52:37;;;;;;;43.75;15.75;;;;;;;-4.10;82.75;99917.28;1816962;78;22923;-81
2020/12/02 05:55:22;;;;;;;39.38;13.25;;;;;;;-4.18;82.74;99914.76;1782213;80;21144;-80
2020/12/02 05:58:00;;;;;;;36.85;12.82;;;;;;;-4.25;82.82;99914.02;1750306;82;21138;-81
2020/12/02 06:00:30;;;;;;;32.73;12.00;;;;;;;-4.27;83.03;99919.02;1752933;82;21295;-82
2020/12/02 06:03:04;;;;;;;43.40;12.68;;;;;;;-4.29;82.86;99925.69;1695382;83;21323;-82
2020/12/02 06:05:37;;;;;;;42.90;14.78;;;;;;;-4.29;82.86;99925.69;1727472;82;21149;-82
2020/12/02 06:08:10;;;;;;;46.75;14.03;;;;;;;-4.30;82.90;99925.20;1753484;81;21262;-82
2020/12/02 06:10:49;;;;;;;44.18;14.47;;;;;;;-4.31;82.89;99929.83;1729407;82;21316;-82
2020/12/02 06:13:41;;;;;;;51.88;15.10;;;;;;;-4.38;82.89;99918.03;1752385;81;21338;-82
2020/12/02 06:16:28;;;;;;;51.00;14.20;;;;;;;-4.43;83.07;99920.36;1730208;82;21312;-82
2020/12/02 06:19:07;;;;;;;38.45;12.50;;;;;;;-4.45;82.79;99919.42;1719354;83;21525;-83
2020/12/02 06:21:48;;;;;;;37.17;12.13;;;;;;;-4.45;82.79;99919.42;1753774;82;21161;-80
2020/12/02 06:24:48;;;;;;;41.13;12.47;;;;;;;-4.44;82.95;99938.50;1729215;82;21273;-82
2020/12/02 06:27:38;;;;;;;46.77;13.18;;;;;;;-4.45;82.81;99925.77;1754394;81;21284;-82
2020/12/02 06:30:15;;;;;;;41.37;13.80;;;;;;;-4.40;83.04;99927.73;1705144;82;21153;-83
2020/12/02 06:33:05;;;;;;;78.20;22.83;;;;;;;-4.40;83.04;99927.73;1754794;82;21173;-83
2020/12/02 06:35:36;;;;;;;40.98;13.83;;;;;;;-4.32;82.85;99936.95;1728646;82;21296;-82
2020/12/02 06:38:22;;;;;;;36.05;14.30;;;;;;;-4.29;82.31;99936.25;1700461;83;21183;-82
2020/12/02 06:41:01;;;;;;;39.80;12.20;;;;;;;-4.29;82.31;99936.25;1740752;82;21150;-81
2020/12/02 06:43:36;;;;;;;41.37;12.98;;;;;;;-4.35;82.46;99933.02;1740839;82;21624;-81
2020/12/02 06:46:09;;;;;;;33.90;12.07;;;;;;;-4.21;82.27;99943.83;1727274;82;21174;-82
2020/12/02 06:48:38;;;;;;;37.25;12.70;;;;;;;-4.21;82.27;99952.72;1753263;82;21308;-79
2020/12/02 06:51:12;;;;;;;53.95;17.15;;;;;;;-4.29;82.37;99939.66;1704761;83;21518;-79
2020/12/02 06:53:40;;;;;;;53.68;15.43;;;;;;;-4.21;82.27;99940.88;1734848;82;21176;-79
2020/12/02 06:56:13;;;;;;;46.33;12.85;;;;;;;-4.23;82.14;99945.43;1733270;82;21197;-80
2020/12/02 06:58:41;;;;;;;34.90;13.08;;;;;;;-4.24;82.05;99945.84;1733543;82;21201;-80
2020/12/02 07:01:14;;;;;;;36.88;14.60;;;;;;;-4.25;81.99;99959.72;1734501;81;21170;-79
2020/12/02 07:03:44;;;;;;;40.75;12.85;;;;;;;-4.17;82.33;99955.02;1707444;83;21133;-79
2020/12/02 07:06:28;;;;;;;35.30;11.90;;;;;;;-4.13;82.02;99955.22;1735673;81;21129;-80
2020/12/02 07:09:10;;;;;;;39.45;14.23;;;;;;;-4.13;82.02;99955.22;1734851;82;21169;-80
2020/12/02 07:11:43;;;;;;;34.13;11.70;;;;;;;-4.10;81.88;99958.30;1733040;82;21140;-80
2020/12/02 07:14:21;;;;;;;47.98;14.80;;;;;;;-4.13;81.60;99959.44;1706255;83;21142;-82
2020/12/02 07:16:59;;;;;;;59.75;15.15;;;;;;;-4.07;81.72;99955.91;1731733;82;21173;-79
2020/12/02 07:19:31;;;;;;;35.00;11.15;;;;;;;-4.15;81.68;99944.12;1719261;82;21153;-82
2020/12/02 07:22:21;;;;;;;36.40;12.63;;;;;;;-4.15;81.68;99944.12;1735646;82;21193;-82
2020/12/02 07:24:52;;;;;;;38.45;12.80;;;;;;;-4.05;81.53;99944.16;1732441;82;21165;-81
2020/12/02 07:27:22;;;;;;;37.03;12.45;;;;;;;-4.07;81.67;99941.54;1731985;82;21137;-81
2020/12/02 07:30:03;;;;;;;47.73;13.15;;;;;;;-3.98;82.08;99956.73;1732643;82;21165;-81
2020/12/02 07:32:31;;;;;;;32.58;10.55;;;;;;;-3.98;82.08;99956.73;1705400;83;21173;-83
2020/12/02 07:35:12;;;;;;;33.92;10.98;;;;;;;-4.00;81.26;99956.28;1732927;82;21180;-82
2020/12/02 07:37:40;;;;;;;38.02;12.18;;;;;;;-4.04;80.92;99953.50;1734324;81;21165;-79
2020/12/02 07:40:22;;;;;;;32.53;10.32;;;;;;;-4.04;80.92;99953.50;1678881;85;21196;-82
2020/12/02 07:42:49;;;;;;;37.53;12.53;;;;;;;-4.04;81.25;99954.39;1705051;82;21757;-82
2020/12/02 07:45:22;;;;;;;38.20;12.90;;;;;;;-4.04;81.27;99950.96;1734980;82;21168;-83
2020/12/02 07:48:07;;;;;;;38.75;13.32;;;;;;;-4.01;81.24;99953.66;1736638;81;21307;-84
2020/12/02 07:50:44;;;;;;;;;;;;;;;-4.05;80.93;99961.53;1708543;82;21221;-82
2020/12/02 07:53:31;;;;;;;52.88;15.38;;;;;;;-4.05;80.85;99951.78;1672629;84;20210;-81
2020/12/02 07:56:01;;;;;;;41.48;13.58;;;;;;;-4.08;81.09;99955.42;1732852;81;21169;-81
2020/12/02 07:58:34;;;;;;;38.08;12.23;;;;;;;-4.11;81.37;99947.68;1733728;81;21185;-81
2020/12/02 08:01:09;;;;;;;43.60;12.65;;;;;;;-4.03;81.16;99961.20;1731655;81;21685;-81
2020/12/02 08:03:40;;;;;;;41.75;13.68;;;;;;;-3.95;81.20;99959.02;1712911;82;21510;-81
2020/12/02 08:06:25;;;;;;;45.00;14.83;;;;;;;-3.95;81.20;99959.02;1675734;84;21166;-82
2020/12/02 08:08:52;;;;;;;33.98;11.45;;;;;;;-3.94;81.12;99956.97;1732799;81;21551;-81
2020/12/02 08:11:20;;;;;;;41.20;13.25;;;;;;;-3.99;81.25;99960.95;1730979;81;21173;-80
2020/12/02 08:13:56;;;;;;;35.38;12.95;;;;;;;-3.99;81.25;99960.95;1729246;81;21172;-80
2020/12/02 08:16:42;;;;;;;42.48;12.93;;;;;;;-3.95;81.25;99960.30;1731219;81;21188;-81
2020/12/02 08:19:14;;;;;;;40.88;14.18;;;;;;;-3.88;81.21;99959.80;1700607;83;21174;-80
2020/12/02 08:21:50;;;;;;;36.17;12.30;;;;;;;-3.81;81.24;99957.98;1729312;82;21624;-80
2020/12/02 08:24:40;;;;;;;38.73;14.25;;;;;;;-3.75;81.24;99961.63;1729308;82;21165;-81
2020/12/02 08:27:13;;;;;;;41.23;11.25;;;;;;;-3.76;81.00;99963.30;1730753;81;21172;-81
2020/12/02 08:29:50;;;;;;;46.88;16.12;;;;;;;-3.76;80.51;99969.66;1730188;81;21141;-81
2020/12/02 08:32:23;;;;;;;36.85;12.70;;;;;;;-3.74;80.71;99962.08;1733073;82;21146;-80
2020/12/02 08:35:02;;;;;;;36.88;12.73;;;;;;;-3.71;80.15;99964.77;1825746;76;22943;-81
2020/12/02 08:37:38;;;;;;;45.88;12.68;;;;;;;-3.71;80.75;99966.05;1793749;78;21584;-79
2020/12/02 08:40:38;;;;;;;38.30;12.88;;;;;;;-3.72;80.22;99966.45;1801132;78;21149;-79
2020/12/02 08:43:36;;;;;;;41.08;12.45;;;;;;;-3.68;80.90;99963.63;1794157;78;21505;-80
2020/12/02 08:46:27;;;;;;;46.20;13.38;;;;;;;-3.67;80.70;99962.84;1801537;77;21949;-78
2020/12/02 08:49:02;;;;;;;46.80;14.38;;;;;;;-3.54;79.98;99962.98;1798308;78;21274;-78
2020/12/02 08:51:29;;;;;;;44.40;14.07;;;;;;;-3.62;79.15;99955.00;1798679;78;21172;-81
2020/12/02 08:54:00;;;;;;;43.85;12.75;;;;;;;-3.62;79.77;99947.37;1802601;78;21783;-81
2020/12/02 08:56:33;;;;;;;41.42;12.93;;;;;;;-3.61;79.69;99945.33;1797469;77;21305;-79
2020/12/02 08:59:04;;;;;;;28.47;10.98;;;;;;;-3.57;79.77;99950.16;1798325;78;21389;-79
2020/12/02 09:01:31;;;;;;;35.98;12.05;;;;;;;-3.54;79.53;99945.19;1800697;78;21140;-79
2020/12/02 09:03:59;;;;;;;36.40;12.43;;;;;;;-3.49;80.18;99936.97;1800326;78;21187;-79
2020/12/02 09:06:27;;;;;;;49.42;14.75;;;;;;;-3.42;79.59;99935.59;1798730;78;21282;-79
2020/12/02 09:08:55;;;;;;;38.35;13.85;;;;;;;-3.43;79.31;99937.65;1802065;78;21256;-89
2020/12/02 09:11:30;;;;;;;38.95;12.95;;;;;;;-3.43;79.54;99928.34;1764888;80;21309;-84
2020/12/02 09:13:59;;;;;;;42.08;13.90;;;;;;;-3.41;79.64;99938.59;1735366;81;21206;-79
2020/12/02 09:16:35;;;;;;;42.75;15.53;;;;;;;-3.34;79.75;99927.00;1732643;81;21167;-79
2020/12/02 09:19:07;;;;;;;43.42;14.33;;;;;;;-3.27;79.30;99925.20;1758170;79;21160;-81
2020/12/02 09:21:34;;;;;;;48.28;14.30;;;;;;;-3.25;78.78;99918.10;1760605;80;21175;-79
2020/12/02 09:24:02;;;;;;;47.65;12.50;;;;;;;-3.29;78.42;99923.00;1795512;79;21130;-80
2020/12/02 09:26:33;;;;;;;53.33;13.35;;;;;;;-3.27;79.02;99912.48;1793938;79;21294;-82
2020/12/02 09:29:03;;;;;;;50.10;14.98;;;;;;;-3.31;78.96;99914.03;1798772;79;21860;-79
2020/12/02 09:31:33;;;;;;;42.53;13.30;;;;;;;-3.29;79.54;99888.67;1798596;79;21785;-79
2020/12/02 09:34:08;;;;;;;41.90;15.32;;;;;;;-3.14;78.96;99907.52;1800744;79;21603;-80
2020/12/02 09:36:37;;;;;;;35.43;12.82;;;;;;;-3.06;78.91;99901.11;1804142;79;21623;-79
2020/12/02 09:39:07;;;;;;;47.23;15.10;;;;;;;-3.04;77.91;99900.77;1801983;79;21159;-79
2020/12/02 09:42:06;;;;;;;31.07;12.18;;;;;;;-2.88;79.12;99901.87;1802105;79;21138;-79
2020/12/02 09:45:12;;;;;;;31.10;13.03;;;;;;;-2.78;78.00;99892.94;1799280;79;21154;-80
2020/12/02 09:47:41;;;;;;;34.45;13.35;;;;;;;-2.65;78.03;99884.98;1800237;79;21172;-79
2020/12/02 09:50:08;;;;;;;31.42;12.63;;;;;;;-2.57;77.70;99886.97;1799122;79;22006;-79
2020/12/02 09:52:41;;;;;;;35.85;12.20;;;;;;;-2.58;76.96;99884.84;1800507;79;21168;-79
2020/12/02 09:55:23;;;;;;;65.00;22.70;;;;;;;-2.60;76.77;99882.23;1800325;77;21125;-80
2020/12/02 09:57:53;;;;;;;37.48;12.25;;;;;;;-2.58;76.98;99881.44;1801550;79;21152;-80
2020/12/02 10:00:29;;;;;;;35.50;13.35;;;;;;;-2.50;76.72;99871.15;1878980;75;22915;-80
2020/12/02 10:03:39;;;;;;;50.15;17.57;;;;;;;-2.45;77.12;99868.36;1852022;76;21562;-82
2020/12/02 10:06:26;;;;;;;36.35;12.40;;;;;;;-2.34;77.03;99862.43;1853885;76;21160;-81
2020/12/02 10:09:25;;;;;;;40.23;14.63;;;;;;;-2.35;75.77;99862.81;1789436;78;21114;-80
2020/12/02 10:12:10;;;;;;;51.88;16.57;;;;;;;-2.27;76.49;99855.09;1782517;79;21574;-79
2020/12/02 10:15:09;;;;;;;43.48;14.87;;;;;;;-2.28;76.16;99845.70;1817680;78;21161;-80
2020/12/02 10:18:00;;;;;;;39.45;14.40;;;;;;;-2.17;76.34;99846.09;1785039;78;21659;-80
2020/12/02 10:20:47;;;;;;;70.05;24.25;;;;;;;-2.09;75.57;99843.84;1813750;75;38755;-80
2020/12/02 10:23:53;;;;;;;67.55;20.52;;;;;;;-1.96;76.86;99838.81;1831011;77;21604;-79
2020/12/02 10:27:10;;;;;;;32.83;11.57;;;;;;;-1.90;75.52;99838.62;1828659;77;21144;-79
2020/12/02 10:30:24;;;;;;;31.42;12.55;;;;;;;-1.77;74.49;99833.96;1828569;77;21175;-80
2020/12/02 10:33:14;;;;;;;33.98;11.75;;;;;;;-1.80;74.16;99824.11;1829330;77;21729;-79
2020/12/02 10:35:46;;;;;;;37.83;12.68;;;;;;;-1.83;73.42;99824.02;1826713;77;22215;-79
2020/12/02 10:38:28;;;;;;;34.15;12.78;;;;;;;-1.90;74.05;99824.59;1825787;77;21133;-79
2020/12/02 10:41:20;;;;;;;41.90;12.82;;;;;;;-1.89;72.65;99821.64;1827751;77;21572;-79
2020/12/02 10:44:14;;;;;;;35.88;12.98;;;;;;;-1.92;72.68;99824.95;1824437;77;21144;-79
2020/12/02 10:46:58;;;;;;;35.75;12.40;;;;;;;-1.90;72.43;99818.64;1813783;77;21121;-78
2020/12/02 10:49:35;;;;;;;37.10;12.95;;;;;;;-1.86;74.12;99823.90;1815816;77;21176;-78
2020/12/02 10:52:05;;;;;;;37.83;13.13;;;;;;;-1.98;73.13;99823.87;1781372;78;21750;-79
2020/12/02 10:54:35;;;;;;;46.53;14.28;;;;;;;-1.99;73.76;99817.87;1816143;77;21121;-75
2020/12/02 10:57:22;;;;;;;34.98;12.93;;;;;;;-1.90;73.53;99805.90;1778337;78;21142;-76
2020/12/02 10:59:55;;;;;;;36.10;13.65;;;;;;;-1.78;74.24;99802.92;1818332;77;21651;-77
2020/12/02 11:02:28;;;;;;;36.93;12.65;;;;;;;-1.67;73.81;99806.32;1782988;78;21132;-76
2020/12/02 11:05:00;;;;;;;39.98;15.05;;;;;;;-1.52;74.06;99801.29;1785208;78;21162;-77
2020/12/02 11:07:49;;;;;;;67.08;17.75;;;;;;;-1.40;73.86;99797.88;1797535;78;21165;-76
2020/12/02 11:10:24;;;;;;;53.17;17.92;;;;;;;-1.36;72.79;99797.58;1786670;78;21147;-75
2020/12/02 11:13:03;;;;;;;43.15;15.30;;;;;;;-1.37;73.12;99799.66;1819464;77;21467;-77
2020/12/02 11:15:48;;;;;;;43.17;14.68;;;;;;;-1.41;71.30;99797.02;1779228;78;21245;-75
2020/12/02 11:18:39;;;;;;;33.90;12.50;;;;;;;-1.41;72.91;99797.02;1813352;77;21183;-76
2020/12/02 11:21:45;;;;;;;39.70;13.62;;;;;;;-1.44;72.25;99799.86;1784187;78;22316;-75
2020/12/02 11:24:48;;;;;;;35.40;13.05;;;;;;;-1.29;72.95;99792.74;1816088;77;21125;-76
2020/12/02 11:27:17;;;;;;;40.28;12.90;;;;;;;-1.26;72.80;99795.80;1816949;77;21152;-75
2020/12/02 11:29:45;;;;;;;37.73;13.90;;;;;;;-1.38;70.77;99798.80;1783618;78;21168;-76
2020/12/02 11:32:54;;;;;;;31.27;11.97;;;;;;;-1.37;72.51;99792.00;1750408;79;21162;-77
2020/12/02 11:35:47;;;;;;;35.95;13.72;;;;;;;-1.37;71.89;99796.72;1811875;77;21169;-75
2020/12/02 11:38:39;;;;;;;38.50;12.90;;;;;;;-1.18;70.80;99793.08;1806143;78;23631;-74
2020/12/02 11:41:33;;;;;;;37.28;13.28;;;;;;;-1.13;72.39;99787.73;1802964;79;21199;-77
2020/12/02 11:44:17;;;;;;;40.85;13.38;;;;;;;-1.06;71.92;99782.00;1804631;79;21158;-77
2020/12/02 11:46:50;;;;;;;39.55;13.53;;;;;;;-1.01;70.78;99771.55;1740992;81;21652;-77
2020/12/02 11:49:23;;;;;;;37.55;15.45;;;;;;;-1.07;70.44;99775.17;1740995;81;21312;-78
2020/12/02 11:52:08;;;;;;;34.23;14.10;;;;;;;-1.01;70.41;99777.92;1807112;79;21149;-77
2020/12/02 11:54:58;;;;;;;39.83;14.47;;;;;;;-1.03;70.66;99760.84;1807692;79;22202;-75
2020/12/02 11:57:25;;;;;;;41.45;15.58;;;;;;;-0.90;70.25;99758.25;1765385;80;21210;-77
2020/12/02 11:59:54;;;;;;;34.20;13.38;;;;;;;-0.74;71.93;99755.34;1749977;80;21176;-77
2020/12/02 12:02:52;;;;;;;45.50;14.60;;;;;;;-0.74;71.06;99750.66;1764783;79;21165;-77